Time;durP1;ratioP1;P1;durP2;ratioP2;P2;SDS_P1;SDS_P2;PMS_P1;PMS_P2;Temp;Humidity;BMP_temperature;BMP_pressure;BME280_temperature;BME280_humidity;BME280_pressure;Samples;Min_cycle;Max_cycle;Signal;HPM_P1;HPM_P2
2021/08/05 00:00:10;;;;;;;12.35;11.15;;;;;;;14.48;89.06;100479.50;694914;28;1838;-56
2021/08/05 00:00:31;;;;;;;12.15;11.02;;;;;;;14.51;88.97;100482.09;696377;28;1846;-56
2021/08/05 00:00:51;;;;;;;12.03;10.93;;;;;;;14.50;89.00;100482.97;696333;28;4757;-55
2021/08/05 00:01:12;;;;;;;12.17;10.97;;;;;;;14.49;89.65;100478.63;696741;28;1948;-56
2021/08/05 00:01:32;;;;;;;12.23;11.07;;;;;;;14.48;89.58;100479.50;697014;28;1608;-55
2021/08/05 00:01:52;;;;;;;11.67;10.60;;;;;;;14.45;89.41;100476.97;696940;28;1590;-55
2021/08/05 00:02:13;;;;;;;12.00;10.90;;;;;;;14.43;89.69;100476.16;696262;28;1482;-56
2021/08/05 00:02:34;;;;;;;11.50;10.40;;;;;;;14.40;89.73;100479.72;697076;28;3391;-55
2021/08/05 00:02:54;;;;;;;11.17;10.07;;;;;;;14.36;89.82;100475.41;696535;28;4776;-55
2021/08/05 00:03:14;;;;;;;11.55;10.45;;;;;;;14.34;90.02;100484.25;696005;28;1832;-54
2021/08/05 00:03:34;;;;;;;11.90;10.80;;;;;;;14.31;90.28;100479.91;694683;28;1856;-53
2021/08/05 00:03:55;;;;;;;12.23;10.93;;;;;;;14.27;90.67;100476.50;694170;28;4579;-55
2021/08/05 00:04:15;;;;;;;12.25;11.05;;;;;;;14.24;90.99;100480.97;693611;28;1481;-54
2021/08/05 00:04:36;;;;;;;12.10;10.90;;;;;;;14.21;91.10;100474.00;691702;28;1401;-54
2021/08/05 00:04:56;;;;;;;12.05;10.95;;;;;;;14.21;90.96;100473.16;692543;28;1579;-55
2021/08/05 00:05:16;;;;;;;11.90;10.80;;;;;;;14.19;90.93;100473.19;691326;28;1374;-56
2021/08/05 00:05:37;;;;;;;12.10;10.77;;;;;;;14.21;91.03;100476.63;694418;28;1753;-53
2021/08/05 00:05:58;;;;;;;11.98;10.70;;;;;;;14.23;90.62;100477.47;691609;28;1588;-57
2021/08/05 00:06:18;;;;;;;12.00;10.80;;;;;;;14.26;90.42;100472.13;691204;28;4712;-55
2021/08/05 00:06:38;;;;;;;11.77;10.67;;;;;;;14.32;90.27;100479.03;693037;28;4176;-57
2021/08/05 00:06:59;;;;;;;11.23;10.10;;;;;;;14.36;89.94;100477.16;690485;28;4557;-57
2021/08/05 00:07:19;;;;;;;11.57;10.43;;;;;;;14.39;90.02;100483.22;691550;28;1609;-51
2021/08/05 00:07:39;;;;;;;11.00;10.00;;;;;;;14.38;90.21;100480.63;692198;28;1775;-56
2021/08/05 00:08:00;;;;;;;10.97;9.97;;;;;;;14.37;89.99;100481.53;693745;28;1422;-56
2021/08/05 00:08:20;;;;;;;10.90;9.80;;;;;;;14.39;89.59;100477.13;692296;28;1586;-56
2021/08/05 00:08:40;;;;;;;10.50;9.50;;;;;;;14.43;89.13;100478.78;693473;28;1551;-53
2021/08/05 00:09:01;;;;;;;10.53;9.53;;;;;;;14.45;89.46;100471.69;697857;28;1732;-53
2021/08/05 00:09:21;;;;;;;10.63;9.57;;;;;;;14.45;89.67;100474.31;694948;28;1336;-56
2021/08/05 00:09:43;;;;;;;12.05;10.07;;;;;;;14.42;90.25;100475.25;694397;28;4537;-56
2021/08/05 00:10:04;;;;;;;11.18;10.07;;;;;;;14.43;89.90;100484.03;693518;28;1982;-56
2021/08/05 00:10:25;;;;;;;11.10;10.10;;;;;;;14.43;89.41;100479.63;693457;28;3551;-55
2021/08/05 00:10:46;;;;;;;11.25;10.18;;;;;;;14.40;89.96;100474.44;694987;28;1557;-55
2021/08/05 00:11:06;;;;;;;10.97;9.97;;;;;;;14.42;89.88;100482.28;694675;28;1758;-52
2021/08/05 00:11:27;;;;;;;11.07;9.98;;;;;;;14.44;89.68;100475.22;696727;28;2784;-56
2021/08/05 00:11:47;;;;;;;10.88;9.88;;;;;;;14.43;89.87;100476.16;695888;28;1705;-55
2021/08/05 00:12:08;;;;;;;10.97;9.97;;;;;;;14.40;89.99;100473.56;696877;28;1596;-54
2021/08/05 00:12:28;;;;;;;11.18;10.18;;;;;;;14.38;90.42;100472.75;695838;28;1828;-55
2021/08/05 00:12:48;;;;;;;11.27;10.17;;;;;;;14.37;90.12;100468.38;696080;28;4771;-55
2021/08/05 00:13:09;;;;;;;11.43;10.23;;;;;;;14.40;89.70;100476.19;696174;28;1324;-56
2021/08/05 00:13:29;;;;;;;10.82;9.82;;;;;;;14.44;89.61;100475.22;697130;28;3849;-54
2021/08/05 00:13:50;;;;;;;10.65;9.65;;;;;;;14.46;89.12;100474.28;696092;28;3512;-55
2021/08/05 00:14:10;;;;;;;10.87;9.87;;;;;;;14.50;89.56;100482.13;695269;28;1583;-55
2021/08/05 00:14:31;;;;;;;11.30;10.20;;;;;;;14.49;89.75;100470.72;696561;28;1686;-54
2021/08/05 00:14:51;;;;;;;10.50;9.40;;;;;;;14.51;89.31;100474.19;695719;28;1477;-56
2021/08/05 00:15:11;;;;;;;10.30;9.20;;;;;;;14.55;88.92;100470.59;697061;28;1538;-55
2021/08/05 00:15:32;;;;;;;10.35;9.35;;;;;;;14.57;88.85;100476.66;695615;28;1520;-56
2021/08/05 00:15:52;;;;;;;10.40;9.40;;;;;;;14.56;89.23;100474.94;696357;28;4694;-56
2021/08/05 00:16:13;;;;;;;10.88;9.77;;;;;;;14.58;88.90;100470.50;696137;28;3767;-54
2021/08/05 00:16:33;;;;;;;10.20;9.10;;;;;;;14.66;87.88;100474.75;695167;28;2904;-51
2021/08/05 00:16:54;;;;;;;9.75;8.77;;;;;;;14.73;87.29;100477.19;695731;28;3723;-54
2021/08/05 00:17:15;;;;;;;9.87;8.97;;;;;;;14.81;86.96;100471.72;696382;28;1608;-53
2021/08/05 00:17:35;;;;;;;9.90;8.90;;;;;;;14.87;86.70;100462.81;697618;28;1550;-55
2021/08/05 00:17:55;;;;;;;9.63;8.52;;;;;;;14.92;86.50;100476.72;696567;28;1627;-55
2021/08/05 00:18:16;;;;;;;9.50;8.50;;;;;;;14.97;86.17;100469.56;696018;28;1452;-56
2021/08/05 00:18:36;;;;;;;9.50;8.57;;;;;;;15.02;86.02;100469.44;696382;28;2273;-55
2021/08/05 00:18:56;;;;;;;9.33;8.43;;;;;;;15.05;85.69;100472.00;695669;28;4709;-56
2021/08/05 00:19:17;;;;;;;9.43;8.53;;;;;;;15.08;85.37;100469.31;695945;28;4500;-52
2021/08/05 00:19:38;;;;;;;9.40;8.40;;;;;;;15.11;85.26;100471.84;695901;28;2585;-54
2021/08/05 00:19:58;;;;;;;9.27;8.38;;;;;;;15.14;85.06;100474.38;696900;28;2237;-55
2021/08/05 00:20:18;;;;;;;9.53;8.53;;;;;;;15.18;85.17;100473.41;697613;28;1523;-56
2021/08/05 00:20:39;;;;;;;9.30;8.30;;;;;;;15.19;85.03;100475.13;696121;28;1883;-55
2021/08/05 00:20:59;;;;;;;9.80;8.30;;;;;;;15.19;85.05;100469.88;697230;28;1277;-53
2021/08/05 00:21:20;;;;;;;9.40;8.40;;;;;;;15.19;85.01;100475.13;696503;28;1577;-51
2021/08/05 00:21:40;;;;;;;9.00;8.13;;;;;;;15.19;85.07;100474.25;695570;28;4649;-56
2021/08/05 00:22:01;;;;;;;9.52;8.52;;;;;;;15.17;85.15;100476.94;697324;28;1579;-56
2021/08/05 00:22:21;;;;;;;10.10;8.77;;;;;;;15.12;85.94;100479.69;696016;28;1466;-55
2021/08/05 00:22:42;;;;;;;9.63;8.60;;;;;;;15.08;86.42;100472.78;696342;28;3373;-53
2021/08/05 00:23:02;;;;;;;10.13;8.97;;;;;;;15.04;87.31;100472.91;695974;28;4182;-56
2021/08/05 00:23:23;;;;;;;10.82;9.10;;;;;;;14.98;87.90;100472.16;696586;28;1750;-54
2021/08/05 00:23:44;;;;;;;10.50;9.00;;;;;;;14.91;88.42;100470.59;696381;28;1444;-56
2021/08/05 00:24:04;;;;;;;10.68;9.38;;;;;;;14.86;88.20;100477.75;696150;28;1761;-56
2021/08/05 00:24:25;;;;;;;10.70;9.57;;;;;;;14.81;88.69;100474.34;697488;28;1983;-53
2021/08/05 00:24:45;;;;;;;10.57;9.57;;;;;;;14.77;88.97;100472.72;696539;28;4655;-54
2021/08/05 00:25:06;;;;;;;10.40;9.30;;;;;;;14.72;89.22;100469.34;697177;28;1379;-55
2021/08/05 00:25:26;;;;;;;10.95;9.40;;;;;;;14.67;89.33;100469.44;696267;28;1475;-56
2021/08/05 00:25:47;;;;;;;10.47;9.50;;;;;;;14.64;89.69;100469.53;696920;28;1891;-57
2021/08/05 00:26:07;;;;;;;10.35;9.40;;;;;;;14.60;89.79;100468.69;696970;28;1325;-52
2021/08/05 00:26:28;;;;;;;10.63;9.50;;;;;;;14.56;89.76;100472.31;696185;28;4316;-55
2021/08/05 00:26:48;;;;;;;11.38;10.18;;;;;;;14.54;90.11;100466.22;694050;28;3675;-56
2021/08/05 00:27:08;;;;;;;11.53;10.43;;;;;;;14.52;90.32;100468.00;690997;28;2213;-53
2021/08/05 00:27:29;;;;;;;11.93;10.20;;;;;;;14.50;89.93;100471.59;691515;28;1852;-56
2021/08/05 00:27:49;;;;;;;10.87;9.60;;;;;;;14.51;89.56;100463.69;690112;28;5860;-53
2021/08/05 00:28:10;;;;;;;10.15;9.15;;;;;;;14.53;89.46;100467.13;688725;28;1849;-51
2021/08/05 00:28:30;;;;;;;10.60;9.60;;;;;;;14.54;89.36;100462.72;686830;28;1609;-55
2021/08/05 00:28:51;;;;;;;10.70;9.70;;;;;;;14.54;89.39;100466.22;689737;28;1638;-53
2021/08/05 00:29:12;;;;;;;10.10;9.10;;;;;;;14.57;88.72;100470.56;686504;28;1547;-54
2021/08/05 00:29:32;;;;;;;9.90;8.70;;;;;;;14.60;88.72;100473.09;686597;28;1520;-52
2021/08/05 00:29:52;;;;;;;9.70;8.80;;;;;;;14.60;88.94;100473.94;684140;28;1654;-51
2021/08/05 00:30:13;;;;;;;11.00;9.13;;;;;;;14.59;89.50;100474.00;683993;28;4100;-56
2021/08/05 00:30:34;;;;;;;11.48;9.38;;;;;;;14.57;89.52;100468.78;683574;28;1492;-55
2021/08/05 00:30:54;;;;;;;10.57;9.40;;;;;;;14.57;89.92;100475.81;686191;28;5685;-56
2021/08/05 00:31:14;;;;;;;10.93;9.82;;;;;;;14.54;89.97;100471.47;688874;28;1550;-55
2021/08/05 00:31:35;;;;;;;11.07;9.97;;;;;;;14.52;89.99;100475.06;688638;28;1792;-57
2021/08/05 00:31:55;;;;;;;11.27;9.77;;;;;;;14.49;90.05;100470.72;690350;28;1089;-55
2021/08/05 00:32:16;;;;;;;11.43;10.30;;;;;;;14.46;90.07;100471.66;689313;28;1462;-56
2021/08/05 00:32:36;;;;;;;11.77;10.57;;;;;;;14.45;90.30;100476.97;689347;28;1518;-55
2021/08/05 00:32:57;;;;;;;11.10;10.07;;;;;;;14.43;90.30;100473.50;686919;28;1485;-55
2021/08/05 00:33:17;;;;;;;11.00;9.90;;;;;;;14.38;90.21;100468.34;683699;28;1456;-54
2021/08/05 00:33:38;;;;;;;11.10;10.07;;;;;;;14.36;90.41;100474.53;686535;28;4311;-53
2021/08/05 00:33:59;;;;;;;11.63;10.43;;;;;;;14.31;90.90;100475.50;685353;28;4616;-54
2021/08/05 00:34:20;;;;;;;11.65;10.50;;;;;;;14.28;91.04;100475.59;686635;28;1996;-53
2021/08/05 00:34:40;;;;;;;11.63;10.43;;;;;;;14.27;91.09;100471.25;689184;28;1658;-51
2021/08/05 00:35:01;;;;;;;11.40;10.30;;;;;;;14.26;91.07;100469.50;689087;28;1744;-55
2021/08/05 00:35:22;;;;;;;11.50;10.40;;;;;;;14.26;91.27;100468.63;688719;28;1716;-55
2021/08/05 00:35:43;;;;;;;11.25;10.15;;;;;;;14.23;91.43;100466.97;686855;28;1599;-51
2021/08/05 00:36:04;;;;;;;11.70;10.50;;;;;;;14.21;91.46;100468.75;684166;28;1620;-53
2021/08/05 00:36:25;;;;;;;11.52;10.40;;;;;;;14.22;91.60;100475.75;684383;28;1708;-55
2021/08/05 00:36:45;;;;;;;12.13;10.93;;;;;;;14.22;91.52;100474.84;683840;28;4941;-55
2021/08/05 00:37:05;;;;;;;11.98;10.82;;;;;;;14.20;91.62;100467.00;686891;28;1653;-54
2021/08/05 00:37:27;;;;;;;11.52;10.43;;;;;;;14.21;91.34;100462.63;685826;28;4404;-57
2021/08/05 00:37:48;;;;;;;11.87;10.77;;;;;;;14.20;91.73;100463.53;683879;28;4024;-52
2021/08/05 00:38:08;;;;;;;11.50;10.40;;;;;;;14.19;91.97;100467.03;684055;28;1761;-54
2021/08/05 00:38:29;;;;;;;11.83;10.60;;;;;;;14.16;91.86;100470.59;687265;28;1480;-55
2021/08/05 00:38:50;;;;;;;12.02;10.82;;;;;;;14.16;91.77;100464.50;685645;28;1464;-52
2021/08/05 00:39:10;;;;;;;11.68;10.57;;;;;;;14.14;91.79;100472.41;686758;28;3856;-53
2021/08/05 00:39:31;;;;;;;11.73;10.53;;;;;;;14.16;91.54;100472.38;689214;28;1269;-56
2021/08/05 00:39:51;;;;;;;11.20;10.20;;;;;;;14.17;91.60;100467.09;688537;28;4595;-56
2021/08/05 00:40:12;;;;;;;11.30;10.30;;;;;;;14.18;91.79;100460.06;688582;28;2536;-55
2021/08/05 00:40:32;;;;;;;11.50;10.40;;;;;;;14.19;91.75;100467.94;689421;28;1718;-57
2021/08/05 00:40:53;;;;;;;11.85;10.75;;;;;;;14.21;91.50;100462.63;691255;28;3799;-54
2021/08/05 00:41:15;;;;;;;12.50;11.20;;;;;;;14.21;91.73;100463.47;689801;28;4246;-55
2021/08/05 00:41:36;;;;;;;11.90;10.70;;;;;;;14.21;91.48;100467.91;687006;28;1615;-56
2021/08/05 00:41:57;;;;;;;11.10;10.07;;;;;;;14.21;91.51;100462.63;689387;28;1882;-56
2021/08/05 00:42:17;;;;;;;11.70;10.50;;;;;;;14.21;91.83;100467.91;688817;28;1671;-56
2021/08/05 00:42:38;;;;;;;11.80;10.70;;;;;;;14.22;91.91;100459.09;689752;28;1869;-55
2021/08/05 00:42:58;;;;;;;11.60;10.40;;;;;;;14.22;91.55;100459.09;690822;28;4602;-56
2021/08/05 00:43:20;;;;;;;11.25;10.10;;;;;;;14.22;91.56;100457.34;693931;28;1237;-56
2021/08/05 00:43:41;;;;;;;12.05;10.95;;;;;;;14.23;91.92;100459.06;694551;28;1595;-55
2021/08/05 00:44:02;;;;;;;11.73;10.63;;;;;;;14.21;91.75;100458.22;692694;28;1394;-54
2021/08/05 00:44:23;;;;;;;11.90;10.70;;;;;;;14.23;91.56;100456.44;691914;28;1431;-55
2021/08/05 00:44:43;;;;;;;11.50;10.30;;;;;;;14.24;91.46;100458.16;688645;28;3758;-56
2021/08/05 00:45:04;;;;;;;12.27;10.73;;;;;;;14.25;92.07;100459.88;689418;28;1845;-56
2021/08/05 00:45:25;;;;;;;12.57;11.23;;;;;;;14.26;91.77;100458.13;689489;28;4483;-53
2021/08/05 00:45:46;;;;;;;11.68;10.32;;;;;;;14.29;91.28;100460.69;685307;28;4587;-55
2021/08/05 00:46:06;;;;;;;10.60;9.50;;;;;;;14.31;90.79;100454.47;685102;28;1592;-52
2021/08/05 00:46:26;;;;;;;10.83;9.73;;;;;;;14.34;91.09;100457.94;686915;28;1516;-53
2021/08/05 00:46:47;;;;;;;11.57;10.47;;;;;;;14.33;91.48;100462.34;686811;28;1454;-56
2021/08/05 00:47:07;;;;;;;11.30;10.07;;;;;;;14.33;90.97;100453.56;688016;28;1771;-54
2021/08/05 00:47:28;;;;;;;10.53;9.43;;;;;;;14.35;90.79;100457.06;689599;28;3971;-54
2021/08/05 00:47:48;;;;;;;10.88;9.88;;;;;;;14.37;90.36;100463.13;688802;28;4373;-55
2021/08/05 00:48:09;;;;;;;10.32;9.32;;;;;;;14.40;90.61;100455.16;688942;28;2177;-56
2021/08/05 00:48:29;;;;;;;11.40;10.20;;;;;;;14.36;91.23;100458.75;689388;28;1810;-56
2021/08/05 00:48:50;;;;;;;11.75;10.55;;;;;;;14.35;90.62;100454.41;688834;28;4575;-55
2021/08/05 00:49:10;;;;;;;11.00;9.90;;;;;;;14.37;89.90;100464.00;689406;28;1211;-57
2021/08/05 00:49:31;;;;;;;10.57;9.57;;;;;;;14.41;90.30;100459.53;689866;28;1362;-54
2021/08/05 00:49:51;;;;;;;11.55;10.25;;;;;;;14.38;90.64;100455.19;689777;28;1737;-57
2021/08/05 00:50:11;;;;;;;10.87;9.70;;;;;;;14.34;90.50;100458.78;689178;28;1625;-53
2021/08/05 00:50:33;;;;;;;10.73;9.73;;;;;;;14.33;90.60;100456.22;689107;28;1333;-54
2021/08/05 00:50:54;;;;;;;11.52;10.40;;;;;;;14.28;91.19;100454.56;689248;28;4133;-55
2021/08/05 00:51:14;;;;;;;12.03;10.80;;;;;;;14.30;91.19;100451.88;686247;28;2958;-55
2021/08/05 00:51:34;;;;;;;11.38;10.27;;;;;;;14.31;90.76;100459.72;686235;28;1581;-52
2021/08/05 00:51:55;;;;;;;11.13;10.13;;;;;;;14.28;91.44;100449.28;688324;28;4581;-54
2021/08/05 00:52:15;;;;;;;11.73;10.63;;;;;;;14.24;91.52;100446.78;686897;28;1996;-56
2021/08/05 00:52:37;;;;;;;12.50;11.40;;;;;;;14.23;91.72;100450.31;689722;28;1441;-56
2021/08/05 00:52:58;;;;;;;12.25;11.05;;;;;;;14.23;90.84;100456.44;689682;28;1474;-54
2021/08/05 00:53:18;;;;;;;12.23;11.10;;;;;;;14.25;91.05;100452.00;693445;28;1990;-55
2021/08/05 00:53:42;;;;;;;12.60;11.50;;;;;;;14.24;91.37;100452.03;695162;28;1661;-54
2021/08/05 00:54:03;;;;;;;13.23;12.02;;;;;;;14.22;91.51;100449.44;690889;28;1825;-52
2021/08/05 00:54:23;;;;;;;13.38;12.07;;;;;;;14.24;91.03;100449.41;690953;28;1906;-56
2021/08/05 00:54:44;;;;;;;13.07;11.80;;;;;;;14.22;91.29;100449.44;688390;28;4337;-55
2021/08/05 00:55:05;;;;;;;13.82;12.55;;;;;;;14.22;91.42;100449.44;688914;28;1561;-54
2021/08/05 00:55:26;;;;;;;13.45;12.18;;;;;;;14.22;91.45;100449.44;685976;28;4277;-56
2021/08/05 00:55:47;;;;;;;12.82;11.63;;;;;;;14.24;91.01;100446.78;687576;28;1904;-54
2021/08/05 00:56:08;;;;;;;12.70;11.60;;;;;;;14.25;91.00;100451.16;689128;28;2003;-54
2021/08/05 00:56:28;;;;;;;12.77;11.60;;;;;;;14.26;90.78;100451.09;687806;28;1242;-54
2021/08/05 00:56:50;;;;;;;12.70;11.40;;;;;;;14.31;90.13;100454.47;687574;28;1693;-56
2021/08/05 00:57:10;;;;;;;12.27;11.10;;;;;;;14.36;89.64;100450.88;690159;28;1378;-55
2021/08/05 00:57:31;;;;;;;13.07;11.70;;;;;;;14.35;90.37;100444.75;692644;28;4017;-55
2021/08/05 00:57:52;;;;;;;13.40;12.00;;;;;;;14.37;90.35;100452.59;691947;28;4414;-55
2021/08/05 00:58:13;;;;;;;13.10;11.90;;;;;;;14.36;90.21;100443.88;691826;28;4459;-55
2021/08/05 00:58:34;;;;;;;13.80;12.50;;;;;;;14.34;90.64;100447.44;695025;28;1861;-53
2021/08/05 00:58:54;;;;;;;13.73;12.43;;;;;;;14.29;90.30;100445.78;690367;28;1324;-57
2021/08/05 00:59:15;;;;;;;13.80;12.50;;;;;;;14.28;90.53;100446.66;689497;28;1620;-56
2021/08/05 00:59:35;;;;;;;13.38;12.10;;;;;;;14.28;90.52;100440.56;690162;28;1528;-53
2021/08/05 00:59:56;;;;;;;13.07;11.80;;;;;;;14.31;89.75;100449.22;687403;28;1537;-56
2021/08/05 01:00:17;;;;;;;13.68;12.43;;;;;;;14.31;90.37;100443.09;683949;28;3973;-53
2021/08/05 01:00:38;;;;;;;13.53;12.33;;;;;;;14.29;90.64;100443.13;684038;28;3551;-52
2021/08/05 01:01:07;;;;;;;13.50;12.30;;;;;;;14.24;90.46;100436.25;682391;28;4894;-54
2021/08/05 01:01:35;;;;;;;13.57;12.18;;;;;;;14.33;89.64;100456.22;681707;28;2133;-55
2021/08/05 01:02:02;;;;;;;13.25;12.05;;;;;;;14.37;90.70;100442.09;683543;28;1553;-54
2021/08/05 01:02:26;;;;;;;13.55;12.35;;;;;;;14.26;90.50;100440.59;681729;28;1707;-55
2021/08/05 01:02:50;;;;;;;13.45;12.15;;;;;;;14.23;90.21;100445.94;682328;28;1917;-57
2021/08/05 01:03:21;;;;;;;13.57;12.27;;;;;;;14.20;90.39;100443.34;684116;28;1122;-54
2021/08/05 01:03:44;;;;;;;13.68;12.38;;;;;;;14.18;90.49;100442.53;683481;28;4613;-57
2021/08/05 01:04:08;;;;;;;14.68;13.30;;;;;;;14.17;90.59;100440.78;685913;28;3931;-56
2021/08/05 01:04:32;;;;;;;14.77;13.32;;;;;;;14.16;90.14;100440.84;685911;28;1770;-56
2021/08/05 01:04:55;;;;;;;14.10;12.80;;;;;;;14.18;90.18;100432.03;688617;28;1695;-55
2021/08/05 01:05:17;;;;;;;14.65;13.23;;;;;;;14.18;90.78;100432.03;685966;28;1385;-53
2021/08/05 01:05:42;;;;;;;15.43;13.85;;;;;;;14.15;90.86;100437.34;685667;28;1524;-54
2021/08/05 01:06:41;;;;;;;15.05;13.60;;;;;;;14.08;91.05;100434.00;683925;28;1390;-55
2021/08/05 01:07:09;;;;;;;14.63;13.32;;;;;;;14.08;89.95;100439.25;688202;28;4858;-54
2021/08/05 01:07:38;;;;;;;14.27;12.98;;;;;;;14.13;90.53;100440.00;690455;28;1703;-54
2021/08/05 01:08:16;;;;;;;14.63;13.20;;;;;;;14.08;91.10;100435.75;691141;28;2173;-54
2021/08/05 01:08:43;;;;;;;15.02;13.65;;;;;;;14.04;91.08;100434.09;687827;28;1838;-54
2021/08/05 01:09:25;;;;;;;15.20;13.70;;;;;;;14.01;91.55;100434.16;688545;28;2238;-54
2021/08/05 01:09:51;;;;;;;15.70;14.30;;;;;;;13.98;91.86;100442.97;686093;28;4445;-54
2021/08/05 01:10:16;;;;;;;16.30;14.70;;;;;;;13.99;92.05;100438.59;688498;28;1753;-52
2021/08/05 01:10:51;;;;;;;16.50;15.00;;;;;;;13.95;92.31;100436.03;690491;28;3214;-54
2021/08/05 01:11:18;;;;;;;17.27;15.57;;;;;;;13.95;92.32;100436.03;690825;28;1499;-56
2021/08/05 01:11:44;;;;;;;16.65;15.05;;;;;;;13.96;92.03;100437.75;690395;28;1730;-54
2021/08/05 01:12:56;;;;;;;16.50;14.80;;;;;;;13.96;91.94;100436.91;691146;28;1809;-55
2021/08/05 01:13:30;;;;;;;16.25;14.75;;;;;;;13.93;91.76;100426.47;680685;29;5022;-55
2021/08/05 01:13:56;;;;;;;15.85;14.35;;;;;;;13.91;92.26;100436.97;683866;28;1308;-55
2021/08/05 01:14:20;;;;;;;16.35;14.77;;;;;;;13.90;91.91;100437.03;688459;28;4216;-56
2021/08/05 01:14:44;;;;;;;15.60;14.10;;;;;;;13.90;91.89;100437.91;689122;28;1834;-56
2021/08/05 01:15:14;;;;;;;15.93;14.43;;;;;;;13.90;91.82;100435.28;689942;28;1796;-55
2021/08/05 01:15:34;;;;;;;15.90;14.35;;;;;;;13.91;91.92;100433.50;689004;28;2128;-54
2021/08/05 01:15:57;;;;;;;15.13;13.73;;;;;;;13.94;91.59;100433.44;688840;28;4420;-55
2021/08/05 01:16:23;;;;;;;15.77;14.32;;;;;;;13.94;92.12;100433.44;691172;28;1286;-54
2021/08/05 01:16:47;;;;;;;15.82;14.23;;;;;;;13.92;91.52;100436.09;691432;28;1453;-56
2021/08/05 01:17:10;;;;;;;15.75;14.25;;;;;;;13.95;90.95;100432.53;691392;28;1443;-57
2021/08/05 01:17:36;;;;;;;15.35;13.85;;;;;;;13.99;90.99;100430.72;692615;28;1458;-56
2021/08/05 01:18:00;;;;;;;15.43;13.98;;;;;;;14.04;90.87;100431.47;691604;28;3855;-54
2021/08/05 01:18:29;;;;;;;16.05;14.55;;;;;;;14.08;90.75;100433.13;691680;28;1690;-56
2021/08/05 01:18:52;;;;;;;15.38;13.88;;;;;;;14.09;90.59;100433.06;691733;28;4548;-56
2021/08/05 01:19:27;;;;;;;14.90;13.50;;;;;;;14.09;90.57;100434.84;691640;28;2248;-54
2021/08/05 01:19:58;;;;;;;14.88;13.48;;;;;;;14.10;90.24;100433.97;692617;28;1546;-54
2021/08/05 01:20:22;;;;;;;14.45;13.15;;;;;;;14.09;90.91;100429.59;690876;28;1294;-55
2021/08/05 01:20:45;;;;;;;14.77;13.48;;;;;;;14.12;90.43;100432.16;689444;28;1081;-56
2021/08/05 01:21:28;;;;;;;14.63;13.23;;;;;;;14.11;90.39;100433.06;690669;28;1544;-55
2021/08/05 01:22:00;;;;;;;14.63;13.30;;;;;;;14.07;90.45;100431.41;689515;28;4648;-54
2021/08/05 01:22:24;;;;;;;15.50;14.07;;;;;;;14.06;90.67;100429.66;688438;28;1584;-54
2021/08/05 01:23:09;;;;;;;14.95;13.55;;;;;;;14.06;90.31;100429.66;691988;28;1749;-54
2021/08/05 01:23:35;;;;;;;15.48;14.07;;;;;;;14.05;91.03;100431.44;691943;28;1519;-56
2021/08/05 01:24:01;;;;;;;15.50;14.02;;;;;;;14.05;90.54;100425.31;691856;28;1512;-53
2021/08/05 01:24:24;;;;;;;15.68;14.13;;;;;;;14.05;90.75;100428.81;693663;28;1302;-57
2021/08/05 01:24:54;;;;;;;15.32;13.82;;;;;;;14.07;90.72;100428.78;691440;28;4428;-54
2021/08/05 01:25:27;;;;;;;15.88;14.38;;;;;;;14.00;90.44;100425.44;688450;28;1856;-55
2021/08/05 01:25:54;;;;;;;15.25;13.75;;;;;;;14.02;90.46;100430.63;683677;28;4145;-54
2021/08/05 01:26:30;;;;;;;14.95;13.55;;;;;;;14.05;90.43;100422.69;683926;28;1744;-55
2021/08/05 01:26:58;;;;;;;15.27;13.77;;;;;;;14.08;90.08;100419.97;687085;28;1467;-57
2021/08/05 01:27:21;;;;;;;15.27;13.80;;;;;;;14.09;90.24;100421.72;688478;28;1609;-54
2021/08/05 01:27:42;;;;;;;15.05;13.65;;;;;;;14.11;90.10;100425.19;687845;28;4850;-57
2021/08/05 01:28:03;;;;;;;14.50;13.20;;;;;;;14.08;90.50;100423.47;688848;28;1720;-56
2021/08/05 01:28:24;;;;;;;15.20;13.80;;;;;;;14.04;90.60;100423.56;686443;28;3977;-55
2021/08/05 01:28:45;;;;;;;15.25;13.75;;;;;;;14.04;89.80;100424.44;682234;28;1655;-55
2021/08/05 01:29:06;;;;;;;15.50;13.90;;;;;;;14.07;89.93;100423.53;684317;28;1518;-55
2021/08/05 01:29:29;;;;;;;15.45;14.05;;;;;;;14.06;90.09;100427.03;686191;28;1337;-54
2021/08/05 01:29:51;;;;;;;15.25;13.85;;;;;;;14.05;90.34;100423.56;686016;28;1472;-54
2021/08/05 01:30:12;;;;;;;15.55;14.13;;;;;;;14.08;89.97;100422.59;689089;28;1797;-54
2021/08/05 01:30:34;;;;;;;14.48;13.02;;;;;;;14.18;89.10;100424.13;687467;28;4327;-56
2021/08/05 01:30:56;;;;;;;14.63;13.23;;;;;;;14.20;89.96;100422.31;686713;28;4419;-52
2021/08/05 01:31:22;;;;;;;14.77;13.27;;;;;;;14.22;89.78;100427.53;686576;28;1569;-55
2021/08/05 01:31:44;;;;;;;14.65;13.20;;;;;;;14.19;90.10;100428.50;683070;28;1782;-55
2021/08/05 01:32:06;;;;;;;15.00;13.60;;;;;;;14.15;90.01;100421.59;683438;28;1637;-55
2021/08/05 01:32:27;;;;;;;14.93;13.50;;;;;;;14.15;89.62;100424.22;687577;28;1738;-55
2021/08/05 01:32:48;;;;;;;14.83;13.43;;;;;;;14.12;90.02;100426.88;689225;28;1491;-55
2021/08/05 01:33:10;;;;;;;15.40;13.90;;;;;;;14.08;90.10;100427.84;686574;28;1748;-54
2021/08/05 01:33:31;;;;;;;15.27;13.88;;;;;;;14.05;90.25;100425.31;685319;28;1739;-57
2021/08/05 01:33:52;;;;;;;15.77;14.27;;;;;;;14.06;89.99;100424.41;687945;28;4495;-55
2021/08/05 01:34:14;;;;;;;15.80;14.20;;;;;;;14.09;89.71;100424.34;689211;28;3841;-55
2021/08/05 01:34:36;;;;;;;15.90;14.38;;;;;;;14.11;90.24;100425.19;685637;28;2108;-55
2021/08/05 01:34:57;;;;;;;16.25;14.70;;;;;;;14.11;90.22;100428.66;690284;28;3865;-55
2021/08/05 01:35:18;;;;;;;14.73;13.35;;;;;;;14.15;90.12;100421.59;692437;28;1635;-53
2021/08/05 01:35:41;;;;;;;14.85;13.35;;;;;;;14.17;90.14;100425.03;690199;28;1415;-57
2021/08/05 01:36:04;;;;;;;15.63;14.18;;;;;;;14.15;90.20;100424.22;688855;28;1414;-52
2021/08/05 01:36:27;;;;;;;16.33;14.73;;;;;;;14.13;89.97;100424.22;687465;28;1551;-56
2021/08/05 01:36:49;;;;;;;16.80;15.18;;;;;;;14.10;89.85;100424.28;689169;28;4378;-52
2021/08/05 01:37:10;;;;;;;16.70;15.10;;;;;;;14.09;90.05;100427.81;688314;28;3959;-55
2021/08/05 01:37:32;;;;;;;17.00;15.35;;;;;;;14.07;90.16;100424.38;686970;28;1949;-54
2021/08/05 01:37:53;;;;;;;16.45;14.95;;;;;;;14.06;90.31;100422.63;686583;28;1320;-56
2021/08/05 01:38:15;;;;;;;16.33;14.82;;;;;;;14.06;90.68;100420.00;683992;28;1270;-55
2021/08/05 01:38:37;;;;;;;16.50;15.00;;;;;;;14.05;90.57;100422.69;688049;28;1413;-54
2021/08/05 01:39:01;;;;;;;16.35;14.85;;;;;;;14.04;90.33;100428.81;689451;28;3729;-55
2021/08/05 01:39:22;;;;;;;16.35;14.75;;;;;;;14.03;90.18;100421.88;689341;28;1557;-55
2021/08/05 01:39:44;;;;;;;16.93;15.23;;;;;;;14.05;90.38;100422.69;687149;28;4663;-54
2021/08/05 01:40:05;;;;;;;17.00;15.45;;;;;;;14.04;90.80;100418.31;681824;28;4137;-55
2021/08/05 01:40:28;;;;;;;17.10;15.50;;;;;;;14.04;90.68;100418.31;687520;28;1707;-54
2021/08/05 01:40:50;;;;;;;17.73;16.08;;;;;;;14.01;90.81;100413.13;688578;28;1724;-54
2021/08/05 01:41:11;;;;;;;17.80;16.10;;;;;;;14.02;90.64;100417.50;685815;28;1697;-56
2021/08/05 01:41:32;;;;;;;18.02;16.35;;;;;;;14.00;90.58;100414.91;683360;28;1688;-53
2021/08/05 01:41:53;;;;;;;17.58;15.88;;;;;;;14.02;90.66;100418.34;681435;29;1860;-54
2021/08/05 01:42:17;;;;;;;16.92;15.23;;;;;;;14.04;90.60;100415.69;678194;29;1756;-56
2021/08/05 01:42:38;;;;;;;16.95;15.25;;;;;;;14.04;91.00;100419.19;681262;29;1700;-56
2021/08/05 01:43:00;;;;;;;16.77;15.27;;;;;;;14.02;90.95;100414.88;679923;28;4520;-54
2021/08/05 01:43:21;;;;;;;17.63;15.98;;;;;;;14.02;91.11;100413.09;684414;28;1353;-56
2021/08/05 01:43:44;;;;;;;17.55;15.95;;;;;;;14.01;91.20;100410.50;686739;28;3789;-55
2021/08/05 01:44:07;;;;;;;17.05;15.45;;;;;;;14.04;90.79;100413.06;685593;28;1745;-56
2021/08/05 01:44:28;;;;;;;17.25;15.55;;;;;;;14.03;90.90;100409.56;684640;28;1782;-53
2021/08/05 01:44:53;;;;;;;17.58;15.88;;;;;;;14.04;91.15;100415.69;686833;28;1450;-56